sensor_id;sensor_type;location;lat;lon;timestamp;pressure;altitude;pressure_sealevel;temperature;humidity
29383;BME280;16365;51.598;7.668;2023-01-08T00:00:02;99853.06;;;17.18;43.49
29383;BME280;16365;51.598;7.668;2023-01-08T00:02:29;99853.06;;;17.18;43.89
29383;BME280;16365;51.598;7.668;2023-01-08T00:04:55;99857.06;;;17.17;43.76
29383;BME280;16365;51.598;7.668;2023-01-08T00:07:22;99856.66;;;17.19;43.62
29383;BME280;16365;51.598;7.668;2023-01-08T00:09:48;99850.28;;;17.18;43.74
29383;BME280;16365;51.598;7.668;2023-01-08T00:12:16;99856.66;;;17.19;43.81
29383;BME280;16365;51.598;7.668;2023-01-08T00:14:43;99854.69;;;17.19;43.62
29383;BME280;16365;51.598;7.668;2023-01-08T00:17:09;99849.88;;;17.20;43.46
29383;BME280;16365;51.598;7.668;2023-01-08T00:19:36;99847.88;;;17.20;43.56
29383;BME280;16365;51.598;7.668;2023-01-08T00:22:02;99850.28;;;17.22;43.98
29383;BME280;16365;51.598;7.668;2023-01-08T00:24:28;99855.91;;;17.22;43.56
29383;BME280;16365;51.598;7.668;2023-01-08T00:26:55;99845.88;;;17.21;44.00
29383;BME280;16365;51.598;7.668;2023-01-08T00:29:21;99845.88;;;17.21;43.94
29383;BME280;16365;51.598;7.668;2023-01-08T00:31:48;99843.06;;;17.21;43.56
29383;BME280;16365;51.598;7.668;2023-01-08T00:34:14;99838.28;;;17.21;43.76
29383;BME280;16365;51.598;7.668;2023-01-08T00:36:41;99841.09;;;17.21;43.81
29383;BME280;16365;51.598;7.668;2023-01-08T00:39:08;99838.28;;;17.21;43.64
29383;BME280;16365;51.598;7.668;2023-01-08T00:41:35;99832.28;;;17.23;43.65
29383;BME280;16365;51.598;7.668;2023-01-08T00:44:01;99832.28;;;17.23;44.07
29383;BME280;16365;51.598;7.668;2023-01-08T00:46:27;99839.88;;;17.23;44.18
29383;BME280;16365;51.598;7.668;2023-01-08T00:48:54;99828.69;;;17.23;43.85
29383;BME280;16365;51.598;7.668;2023-01-08T00:51:20;99827.88;;;17.22;43.64
29383;BME280;16365;51.598;7.668;2023-01-08T00:53:46;99831.47;;;17.23;44.23
29383;BME280;16365;51.598;7.668;2023-01-08T00:56:13;99835.09;;;17.23;44.17
29383;BME280;16365;51.598;7.668;2023-01-08T00:58:39;99817.47;;;17.23;43.81
29383;BME280;16365;51.598;7.668;2023-01-08T01:01:12;99828.69;;;17.23;44.03
29383;BME280;16365;51.598;7.668;2023-01-08T01:03:39;99819.47;;;17.22;44.31
29383;BME280;16365;51.598;7.668;2023-01-08T01:06:06;99816.69;;;17.22;43.95
29383;BME280;16365;51.598;7.668;2023-01-08T01:08:33;99805.84;;;17.20;43.93
29383;BME280;16365;51.598;7.668;2023-01-08T01:10:59;99810.66;;;17.20;44.14
29383;BME280;16365;51.598;7.668;2023-01-08T01:13:25;99811.06;;;17.18;43.88
29383;BME280;16365;51.598;7.668;2023-01-08T01:15:55;99807.47;;;17.18;44.31
29383;BME280;16365;51.598;7.668;2023-01-08T01:18:24;99809.47;;;17.17;44.08
29383;BME280;16365;51.598;7.668;2023-01-08T01:20:50;99796.66;;;17.16;43.84
29383;BME280;16365;51.598;7.668;2023-01-08T01:23:17;99798.63;;;17.16;44.28
29383;BME280;16365;51.598;7.668;2023-01-08T01:25:44;99794.66;;;17.17;44.23
29383;BME280;16365;51.598;7.668;2023-01-08T01:28:11;99795.81;;;17.16;44.20
29383;BME280;16365;51.598;7.668;2023-01-08T01:30:37;99800.25;;;17.17;44.15
29383;BME280;16365;51.598;7.668;2023-01-08T01:33:04;99801.84;;;17.18;44.08
29383;BME280;16365;51.598;7.668;2023-01-08T01:35:30;99799.84;;;17.18;44.37
29383;BME280;16365;51.598;7.668;2023-01-08T01:37:56;99799.06;;;17.18;44.25
29383;BME280;16365;51.598;7.668;2023-01-08T01:40:23;99799.06;;;17.18;44.05
29383;BME280;16365;51.598;7.668;2023-01-08T01:42:49;99791.06;;;17.16;44.57
29383;BME280;16365;51.598;7.668;2023-01-08T01:47:48;99791.06;;;17.16;44.00
29383;BME280;16365;51.598;7.668;2023-01-08T01:50:25;99792.66;;;17.17;44.30
29383;BME280;16365;51.598;7.668;2023-01-08T01:52:59;99785.44;;;17.16;44.28
29383;BME280;16365;51.598;7.668;2023-01-08T01:55:26;99793.84;;;17.16;44.18
29383;BME280;16365;51.598;7.668;2023-01-08T01:58:04;99795.81;;;17.16;44.23
29383;BME280;16365;51.598;7.668;2023-01-08T02:00:32;99795.44;;;17.14;44.10
29383;BME280;16365;51.598;7.668;2023-01-08T02:02:59;99805.03;;;17.13;43.98
29383;BME280;16365;51.598;7.668;2023-01-08T02:05:27;99805.41;;;17.11;44.48
29383;BME280;16365;51.598;7.668;2023-01-08T02:08:01;99809.41;;;17.10;43.99
29383;BME280;16365;51.598;7.668;2023-01-08T02:10:41;99799.03;;;17.07;44.38
29383;BME280;16365;51.598;7.668;2023-01-08T02:13:15;99805.78;;;17.06;44.47
29383;BME280;16365;51.598;7.668;2023-01-08T02:15:55;99809.78;;;17.05;44.38
29383;BME280;16365;51.598;7.668;2023-01-08T02:18:44;99819.81;;;17.03;44.37
29383;BME280;16365;51.598;7.668;2023-01-08T02:21:13;99808.97;;;17.01;44.22
29383;BME280;16365;51.598;7.668;2023-01-08T02:23:46;99806.19;;;17.01;44.50
29383;BME280;16365;51.598;7.668;2023-01-08T02:26:35;99799.78;;;17.01;44.16
29383;BME280;16365;51.598;7.668;2023-01-08T02:29:14;99793.38;;;17.00;44.38
29383;BME280;16365;51.598;7.668;2023-01-08T02:31:41;99792.97;;;17.02;44.22
29383;BME280;16365;51.598;7.668;2023-01-08T02:34:09;99785.41;;;17.02;44.70
29383;BME280;16365;51.598;7.668;2023-01-08T02:36:37;99775.38;;;17.01;44.36
29383;BME280;16365;51.598;7.668;2023-01-08T02:44:06;99767.00;;;17.05;44.70
29383;BME280;16365;51.598;7.668;2023-01-08T02:46:34;99748.19;;;17.05;44.64
29383;BME280;16365;51.598;7.668;2023-01-08T02:49:04;99753.41;;;17.07;44.48
29383;BME280;16365;51.598;7.668;2023-01-08T02:51:33;99748.63;;;17.07;44.46
29383;BME280;16365;51.598;7.668;2023-01-08T02:54:01;99746.19;;;17.09;44.32
29383;BME280;16365;51.598;7.668;2023-01-08T02:56:30;99738.19;;;17.11;44.48
29383;BME280;16365;51.598;7.668;2023-01-08T02:58:58;99733.41;;;17.12;44.42
29383;BME280;16365;51.598;7.668;2023-01-08T03:01:26;99733.03;;;17.13;44.28
29383;BME280;16365;51.598;7.668;2023-01-08T03:03:55;99734.63;;;17.14;44.78
29383;BME280;16365;51.598;7.668;2023-01-08T03:06:22;99720.22;;;17.12;44.66
29383;BME280;16365;51.598;7.668;2023-01-08T03:08:50;99713.81;;;17.12;44.38
29383;BME280;16365;51.598;7.668;2023-01-08T03:11:18;99711.38;;;17.10;44.59
29383;BME280;16365;51.598;7.668;2023-01-08T03:13:47;99718.19;;;17.09;44.78
29383;BME280;16365;51.598;7.668;2023-01-08T03:16:18;99713.81;;;17.08;44.44
29383;BME280;16365;51.598;7.668;2023-01-08T03:18:58;99706.59;;;17.07;44.39
29383;BME280;16365;51.598;7.668;2023-01-08T03:21:26;99701.38;;;17.06;44.42
29383;BME280;16365;51.598;7.668;2023-01-08T03:23:52;99689.78;;;17.04;44.77
29383;BME280;16365;51.598;7.668;2023-01-08T03:26:21;99694.16;;;17.01;44.71
29383;BME280;16365;51.598;7.668;2023-01-08T03:28:50;99696.16;;;17.01;44.81
29383;BME280;16365;51.598;7.668;2023-01-08T03:31:17;99692.97;;;16.99;44.47
29383;BME280;16365;51.598;7.668;2023-01-08T03:33:44;99686.56;;;16.98;44.55
29383;BME280;16365;51.598;7.668;2023-01-08T03:36:19;99693.38;;;16.97;44.81
29383;BME280;16365;51.598;7.668;2023-01-08T03:38:49;99686.94;;;16.96;44.95
29383;BME280;16365;51.598;7.668;2023-01-08T03:41:18;99694.19;;;16.98;44.87
29383;BME280;16365;51.598;7.668;2023-01-08T03:43:46;99686.16;;;16.96;45.03
29383;BME280;16365;51.598;7.668;2023-01-08T03:46:19;99682.19;;;16.97;44.80
29383;BME280;16365;51.598;7.668;2023-01-08T03:48:47;99677.75;;;16.96;44.94
29383;BME280;16365;51.598;7.668;2023-01-08T03:51:14;99681.34;;;16.96;45.05
29383;BME280;16365;51.598;7.668;2023-01-08T03:53:41;99679.75;;;16.95;44.87
29383;BME280;16365;51.598;7.668;2023-01-08T03:56:07;99672.94;;;16.96;44.55
29383;BME280;16365;51.598;7.668;2023-01-08T03:58:33;99674.16;;;16.95;44.78
29383;BME280;16365;51.598;7.668;2023-01-08T04:01:00;99670.56;;;16.95;45.02
29383;BME280;16365;51.598;7.668;2023-01-08T04:03:26;99670.56;;;16.95;45.06
29383;BME280;16365;51.598;7.668;2023-01-08T04:05:53;99670.56;;;16.95;44.90
29383;BME280;16365;51.598;7.668;2023-01-08T04:08:19;99661.34;;;16.94;44.62
29383;BME280;16365;51.598;7.668;2023-01-08T04:10:45;99666.97;;;16.94;44.62
29383;BME280;16365;51.598;7.668;2023-01-08T04:13:12;99663.75;;;16.96;44.97
29383;BME280;16365;51.598;7.668;2023-01-08T04:15:38;99664.16;;;16.94;44.71
29383;BME280;16365;51.598;7.668;2023-01-08T04:18:05;99660.16;;;16.95;44.84
29383;BME280;16365;51.598;7.668;2023-01-08T04:20:31;99653.38;;;16.93;45.12
29383;BME280;16365;51.598;7.668;2023-01-08T04:22:58;99668.97;;;16.94;45.13
29383;BME280;16365;51.598;7.668;2023-01-08T04:25:24;99656.97;;;16.93;44.84
29383;BME280;16365;51.598;7.668;2023-01-08T04:27:50;99667.38;;;16.93;45.14
29383;BME280;16365;51.598;7.668;2023-01-08T04:30:17;99667.38;;;16.93;45.07
29383;BME280;16365;51.598;7.668;2023-01-08T04:32:43;99664.56;;;16.93;45.22
29383;BME280;16365;51.598;7.668;2023-01-08T04:35:09;99653.38;;;16.93;44.96
29383;BME280;16365;51.598;7.668;2023-01-08T04:37:35;99658.97;;;16.93;45.06
29383;BME280;16365;51.598;7.668;2023-01-08T04:40:02;99661.34;;;16.94;45.20
29383;BME280;16365;51.598;7.668;2023-01-08T04:42:28;99659.75;;;16.93;44.85
29383;BME280;16365;51.598;7.668;2023-01-08T04:44:55;99654.97;;;16.94;44.86
29383;BME280;16365;51.598;7.668;2023-01-08T04:47:21;99657.75;;;16.94;45.06
29383;BME280;16365;51.598;7.668;2023-01-08T04:49:48;99649.38;;;16.94;45.06
29383;BME280;16365;51.598;7.668;2023-01-08T04:52:15;99638.16;;;16.94;44.86
29383;BME280;16365;51.598;7.668;2023-01-08T04:54:41;99637.38;;;16.93;45.33
29383;BME280;16365;51.598;7.668;2023-01-08T04:57:08;99641.75;;;16.94;45.12
29383;BME280;16365;51.598;7.668;2023-01-08T04:59:34;99640.56;;;16.95;45.36
29383;BME280;16365;51.598;7.668;2023-01-08T05:02:01;99631.34;;;16.95;45.16
29383;BME280;16365;51.598;7.668;2023-01-08T05:04:27;99634.97;;;16.95;45.11
29383;BME280;16365;51.598;7.668;2023-01-08T05:06:54;99630.94;;;16.96;45.09
29383;BME280;16365;51.598;7.668;2023-01-08T05:09:20;99634.16;;;16.95;44.95
29383;BME280;16365;51.598;7.668;2023-01-08T05:11:47;99632.94;;;16.96;45.19
29383;BME280;16365;51.598;7.668;2023-01-08T05:14:13;99630.16;;;16.96;45.21
29383;BME280;16365;51.598;7.668;2023-01-08T05:16:40;99633.75;;;16.96;45.20
29383;BME280;16365;51.598;7.668;2023-01-08T05:19:06;99644.56;;;16.98;45.14
29383;BME280;16365;51.598;7.668;2023-01-08T05:21:32;99640.19;;;16.97;45.54
29383;BME280;16365;51.598;7.668;2023-01-08T05:23:59;99638.97;;;16.98;45.41
29383;BME280;16365;51.598;7.668;2023-01-08T05:26:25;99640.19;;;16.97;45.01
29383;BME280;16365;51.598;7.668;2023-01-08T05:28:52;99640.19;;;16.97;45.03
29383;BME280;16365;51.598;7.668;2023-01-08T05:31:18;99638.97;;;16.98;45.13
29383;BME280;16365;51.598;7.668;2023-01-08T05:33:44;99645.38;;;16.99;45.25
29383;BME280;16365;51.598;7.668;2023-01-08T05:36:11;99638.19;;;16.98;45.23
29383;BME280;16365;51.598;7.668;2023-01-08T05:38:38;99633.38;;;16.98;44.99
29383;BME280;16365;51.598;7.668;2023-01-08T05:41:05;99633.38;;;16.98;45.28
29383;BME280;16365;51.598;7.668;2023-01-08T05:43:31;99636.56;;;16.96;45.09
29383;BME280;16365;51.598;7.668;2023-01-08T05:45:58;99634.97;;;16.95;45.35
29383;BME280;16365;51.598;7.668;2023-01-08T05:48:28;99630.56;;;16.94;45.25
29383;BME280;16365;51.598;7.668;2023-01-08T05:50:55;99631.75;;;16.93;45.09
29383;BME280;16365;51.598;7.668;2023-01-08T05:53:21;99623.75;;;16.92;45.23
29383;BME280;16365;51.598;7.668;2023-01-08T05:55:47;99616.16;;;16.92;45.67
29383;BME280;16365;51.598;7.668;2023-01-08T05:58:14;99616.16;;;16.92;45.27
29383;BME280;16365;51.598;7.668;2023-01-08T06:00:44;99628.53;;;16.91;45.43
29383;BME280;16365;51.598;7.668;2023-01-08T06:03:10;99614.94;;;16.90;45.56
29383;BME280;16365;51.598;7.668;2023-01-08T06:05:37;99627.34;;;16.89;45.42
29383;BME280;16365;51.598;7.668;2023-01-08T06:08:04;99621.75;;;16.89;45.42
29383;BME280;16365;51.598;7.668;2023-01-08T06:10:33;99624.94;;;16.87;45.09
29383;BME280;16365;51.598;7.668;2023-01-08T06:12:59;99619.34;;;16.87;45.11
29383;BME280;16365;51.598;7.668;2023-01-08T06:15:26;99623.34;;;16.86;45.29
29383;BME280;16365;51.598;7.668;2023-01-08T06:17:52;99618.16;;;16.85;45.48
29383;BME280;16365;51.598;7.668;2023-01-08T06:20:18;99618.16;;;16.85;45.35
29383;BME280;16365;51.598;7.668;2023-01-08T06:22:46;99617.75;;;16.86;45.17
29383;BME280;16365;51.598;7.668;2023-01-08T06:25:12;99620.53;;;16.86;45.50
29383;BME280;16365;51.598;7.668;2023-01-08T06:27:38;99617.38;;;16.88;45.38
29383;BME280;16365;51.598;7.668;2023-01-08T06:30:06;99609.75;;;16.88;45.48
29383;BME280;16365;51.598;7.668;2023-01-08T06:32:32;99612.16;;;16.90;45.55
29383;BME280;16365;51.598;7.668;2023-01-08T06:34:59;99630.94;;;16.89;45.30
29383;BME280;16365;51.598;7.668;2023-01-08T06:37:25;99619.75;;;16.89;45.08
29383;BME280;16365;51.598;7.668;2023-01-08T06:39:51;99618.97;;;16.89;45.05
29383;BME280;16365;51.598;7.668;2023-01-08T06:42:18;99620.16;;;16.88;45.04
29383;BME280;16365;51.598;7.668;2023-01-08T06:44:44;99624.13;;;16.87;45.32
29383;BME280;16365;51.598;7.668;2023-01-08T06:47:11;99621.75;;;16.85;44.89
29383;BME280;16365;51.598;7.668;2023-01-08T06:49:37;99616.94;;;16.82;44.93
29383;BME280;16365;51.598;7.668;2023-01-08T06:52:04;99623.72;;;16.81;44.84
29383;BME280;16365;51.598;7.668;2023-01-08T06:54:38;99617.75;;;16.79;44.93
29383;BME280;16365;51.598;7.668;2023-01-08T06:57:05;99627.72;;;16.77;45.28
29383;BME280;16365;51.598;7.668;2023-01-08T06:59:32;99623.31;;;16.72;45.19
29383;BME280;16365;51.598;7.668;2023-01-08T07:01:58;99631.28;;;16.70;45.21
29383;BME280;16365;51.598;7.668;2023-01-08T07:04:25;99633.25;;;16.66;45.01
29383;BME280;16365;51.598;7.668;2023-01-08T07:06:54;99622.84;;;16.63;45.30
29383;BME280;16365;51.598;7.668;2023-01-08T07:09:21;99619.66;;;16.61;45.34
29383;BME280;16365;51.598;7.668;2023-01-08T07:11:55;99618.44;;;16.58;45.14
29383;BME280;16365;51.598;7.668;2023-01-08T07:14:25;99617.63;;;16.58;45.35
29383;BME280;16365;51.598;7.668;2023-01-08T07:16:51;99624.84;;;16.55;45.39
29383;BME280;16365;51.598;7.668;2023-01-08T07:19:17;99617.22;;;16.52;45.40
29383;BME280;16365;51.598;7.668;2023-01-08T07:21:43;99634.41;;;16.51;45.10
29383;BME280;16365;51.598;7.668;2023-01-08T07:24:10;99627.22;;;16.50;45.35
29383;BME280;16365;51.598;7.668;2023-01-08T07:26:36;99622.41;;;16.47;45.04
29383;BME280;16365;51.598;7.668;2023-01-08T07:29:04;99628.00;;;16.47;45.40
29383;BME280;16365;51.598;7.668;2023-01-08T07:31:32;99624.41;;;16.46;45.51
29383;BME280;16365;51.598;7.668;2023-01-08T07:33:58;99620.00;;;16.45;45.51
29383;BME280;16365;51.598;7.668;2023-01-08T07:36:24;99632.00;;;16.45;45.50
29383;BME280;16365;51.598;7.668;2023-01-08T07:38:51;99625.63;;;16.45;45.71
29383;BME280;16365;51.598;7.668;2023-01-08T07:41:17;99635.19;;;16.48;45.54
29383;BME280;16365;51.598;7.668;2023-01-08T07:43:45;99635.19;;;16.48;45.71
29383;BME280;16365;51.598;7.668;2023-01-08T07:46:12;99636.41;;;16.50;45.53
29383;BME280;16365;51.598;7.668;2023-01-08T07:48:38;99632.81;;;16.50;45.50
29383;BME280;16365;51.598;7.668;2023-01-08T07:51:05;99638.81;;;16.52;45.80
29383;BME280;16365;51.598;7.668;2023-01-08T07:53:32;99640.84;;;16.55;45.59
29383;BME280;16365;51.598;7.668;2023-01-08T07:56:00;99649.63;;;16.57;45.86
29383;BME280;16365;51.598;7.668;2023-01-08T07:58:26;99664.03;;;16.59;45.88
29383;BME280;16365;51.598;7.668;2023-01-08T08:00:53;99677.59;;;16.57;45.52
29383;BME280;16365;51.598;7.668;2023-01-08T08:03:23;99667.63;;;16.56;45.76
29383;BME280;16365;51.598;7.668;2023-01-08T08:05:50;99659.19;;;16.52;45.09
29383;BME280;16365;51.598;7.668;2023-01-08T08:08:18;99656.00;;;16.50;45.49
29383;BME280;16365;51.598;7.668;2023-01-08T08:10:44;99635.59;;;16.46;45.22
29383;BME280;16365;51.598;7.668;2023-01-08T08:13:11;99646.38;;;16.40;45.37
29383;BME280;16365;51.598;7.668;2023-01-08T08:15:38;99645.56;;;16.36;45.40
29383;BME280;16365;51.598;7.668;2023-01-08T08:18:05;99662.31;;;16.33;45.38
29383;BME280;16365;51.598;7.668;2023-01-08T08:20:31;99656.69;;;16.29;45.56
29383;BME280;16365;51.598;7.668;2023-01-08T08:23:08;99666.28;;;16.28;45.57
29383;BME280;16365;51.598;7.668;2023-01-08T08:25:35;99663.88;;;16.27;45.52
29383;BME280;16365;51.598;7.668;2023-01-08T08:28:02;99656.28;;;16.24;45.56
29383;BME280;16365;51.598;7.668;2023-01-08T08:30:29;99660.28;;;16.23;45.47
29383;BME280;16365;51.598;7.668;2023-01-08T08:32:57;99652.28;;;16.21;45.58
29383;BME280;16365;51.598;7.668;2023-01-08T08:35:24;99657.06;;;16.21;45.52
29383;BME280;16365;51.598;7.668;2023-01-08T08:37:50;99649.50;;;16.21;45.57
29383;BME280;16365;51.598;7.668;2023-01-08T08:40:17;99656.28;;;16.20;45.59
29383;BME280;16365;51.598;7.668;2023-01-08T08:42:43;99643.09;;;16.21;45.65
29383;BME280;16365;51.598;7.668;2023-01-08T08:45:09;99643.09;;;16.21;45.45
29383;BME280;16365;51.598;7.668;2023-01-08T08:47:36;99650.28;;;16.22;45.52
29383;BME280;16365;51.598;7.668;2023-01-08T08:50:03;99635.09;;;16.23;45.58
29383;BME280;16365;51.598;7.668;2023-01-08T08:52:30;99642.69;;;16.22;45.48
29383;BME280;16365;51.598;7.668;2023-01-08T08:54:58;99637.09;;;16.22;45.35
29383;BME280;16365;51.598;7.668;2023-01-08T08:57:24;99633.50;;;16.22;45.38
29383;BME280;16365;51.598;7.668;2023-01-08T08:59:51;99638.31;;;16.21;45.40
29383;BME280;16365;51.598;7.668;2023-01-08T09:02:18;99636.69;;;16.20;45.34
29383;BME280;16365;51.598;7.668;2023-01-08T09:04:44;99629.47;;;16.19;45.36
29383;BME280;16365;51.598;7.668;2023-01-08T09:07:12;99631.88;;;16.17;45.26
29383;BME280;16365;51.598;7.668;2023-01-08T09:09:38;99633.09;;;16.16;45.30
29383;BME280;16365;51.598;7.668;2023-01-08T09:12:04;99639.44;;;16.13;45.48
29383;BME280;16365;51.598;7.668;2023-01-08T09:14:32;99637.44;;;16.10;45.69
29383;BME280;16365;51.598;7.668;2023-01-08T09:16:59;99630.63;;;16.07;45.68
29383;BME280;16365;51.598;7.668;2023-01-08T09:19:25;99636.63;;;16.06;45.72
29383;BME280;16365;51.598;7.668;2023-01-08T09:21:51;99639.44;;;16.06;45.76
29383;BME280;16365;51.598;7.668;2023-01-08T09:24:18;99633.03;;;16.05;45.53
29383;BME280;16365;51.598;7.668;2023-01-08T09:26:44;99639.00;;;16.04;45.43
29383;BME280;16365;51.598;7.668;2023-01-08T09:29:12;99653.38;;;16.02;45.67
29383;BME280;16365;51.598;7.668;2023-01-08T09:31:39;99636.19;;;16.00;45.50
29383;BME280;16365;51.598;7.668;2023-01-08T09:34:05;99648.97;;;15.98;45.52
29383;BME280;16365;51.598;7.668;2023-01-08T09:36:32;99655.31;;;15.94;45.53
29383;BME280;16365;51.598;7.668;2023-01-08T09:38:59;99649.28;;;15.89;45.51
29383;BME280;16365;51.598;7.668;2023-01-08T09:41:27;99648.47;;;15.85;45.10
29383;BME280;16365;51.598;7.668;2023-01-08T09:43:54;99649.28;;;15.82;45.40
29383;BME280;16365;51.598;7.668;2023-01-08T09:46:23;99642.44;;;15.79;45.45
29383;BME280;16365;51.598;7.668;2023-01-08T09:48:51;99637.25;;;15.78;45.29
29383;BME280;16365;51.598;7.668;2023-01-08T09:51:19;99636.47;;;15.77;45.61
29383;BME280;16365;51.598;7.668;2023-01-08T09:53:48;99640.44;;;15.76;45.58
29383;BME280;16365;51.598;7.668;2023-01-08T09:56:16;99638.84;;;15.79;45.68
29383;BME280;16365;51.598;7.668;2023-01-08T09:58:44;99626.47;;;15.80;45.51
29383;BME280;16365;51.598;7.668;2023-01-08T10:01:12;99625.72;;;15.83;45.61
29383;BME280;16365;51.598;7.668;2023-01-08T10:03:44;99626.91;;;15.85;45.75
29383;BME280;16365;51.598;7.668;2023-01-08T10:06:11;99622.16;;;15.89;45.67
29383;BME280;16365;51.598;7.668;2023-01-08T10:08:38;99615.78;;;15.92;45.62
29383;BME280;16365;51.598;7.668;2023-01-08T10:11:05;99619.78;;;15.95;45.49
29383;BME280;16365;51.598;7.668;2023-01-08T10:13:32;99614.22;;;15.99;45.66
29383;BME280;16365;51.598;7.668;2023-01-08T10:16:00;99609.84;;;16.01;45.45
29383;BME280;16365;51.598;7.668;2023-01-08T10:18:26;99607.44;;;16.03;45.73
29383;BME280;16365;51.598;7.668;2023-01-08T10:20:53;99600.69;;;16.08;45.38
29383;BME280;16365;51.598;7.668;2023-01-08T10:23:20;99606.69;;;16.13;45.58
29383;BME280;16365;51.598;7.668;2023-01-08T10:30:53;99601.63;;;16.40;46.01
29383;BME280;16365;51.598;7.668;2023-01-08T10:33:25;99601.25;;;16.53;46.18
29383;BME280;16365;51.598;7.668;2023-01-08T10:35:59;99603.25;;;16.63;46.11
29383;BME280;16365;51.598;7.668;2023-01-08T10:38:34;99604.53;;;16.76;45.94
29383;BME280;16365;51.598;7.668;2023-01-08T10:41:04;99601.75;;;16.87;45.76
29383;BME280;16365;51.598;7.668;2023-01-08T10:43:41;99604.56;;;16.94;45.64
29383;BME280;16365;51.598;7.668;2023-01-08T10:46:12;99594.56;;;17.00;45.17
29383;BME280;16365;51.598;7.668;2023-01-08T10:48:46;99585.38;;;17.03;45.50
29383;BME280;16365;51.598;7.668;2023-01-08T10:51:22;99577.78;;;17.07;45.01
29383;BME280;16365;51.598;7.668;2023-01-08T10:53:50;99564.97;;;17.10;44.97
29383;BME280;16365;51.598;7.668;2023-01-08T10:56:24;99558.56;;;17.13;44.94
29383;BME280;16365;51.598;7.668;2023-01-08T10:58:51;99557.75;;;17.16;45.20
29383;BME280;16365;51.598;7.668;2023-01-08T11:03:51;99541.75;;;17.20;44.91
29383;BME280;16365;51.598;7.668;2023-01-08T11:06:22;99553.75;;;17.24;44.71
29383;BME280;16365;51.598;7.668;2023-01-08T11:08:50;99544.56;;;17.27;44.76
29383;BME280;16365;51.598;7.668;2023-01-08T11:11:17;99538.53;;;17.29;45.08
29383;BME280;16365;51.598;7.668;2023-01-08T11:14:04;99536.13;;;17.31;44.88
29383;BME280;16365;51.598;7.668;2023-01-08T11:16:32;99526.53;;;17.32;44.91
29383;BME280;16365;51.598;7.668;2023-01-08T11:18:59;99535.34;;;17.34;44.52
29383;BME280;16365;51.598;7.668;2023-01-08T11:21:28;99538.94;;;17.34;44.70
29383;BME280;16365;51.598;7.668;2023-01-08T11:26:32;99537.34;;;17.37;44.48
29383;BME280;16365;51.598;7.668;2023-01-08T11:36:48;99506.06;;;17.49;44.80
29383;BME280;16365;51.598;7.668;2023-01-08T11:39:17;99492.06;;;17.53;44.87
29383;BME280;16365;51.598;7.668;2023-01-08T12:04:47;99446.34;;;17.81;43.94
29383;BME280;16365;51.598;7.668;2023-01-08T12:07:18;99433.91;;;17.82;43.96
29383;BME280;16365;51.598;7.668;2023-01-08T12:09:52;99433.50;;;17.83;44.38
29383;BME280;16365;51.598;7.668;2023-01-08T12:12:43;99420.69;;;17.86;44.25
29383;BME280;16365;51.598;7.668;2023-01-08T12:15:38;99434.69;;;17.89;43.82
29383;BME280;16365;51.598;7.668;2023-01-08T12:20:35;99425.84;;;17.91;43.54
29383;BME280;16365;51.598;7.668;2023-01-08T12:25:37;99413.84;;;17.94;43.57
29383;BME280;16365;51.598;7.668;2023-01-08T12:28:28;99413.00;;;17.93;43.68
29383;BME280;16365;51.598;7.668;2023-01-08T12:33:49;99403.78;;;17.93;43.53
29383;BME280;16365;51.598;7.668;2023-01-08T12:36:26;99401.78;;;17.93;43.64
29383;BME280;16365;51.598;7.668;2023-01-08T12:38:59;99400.59;;;17.94;43.63
29383;BME280;16365;51.598;7.668;2023-01-08T12:41:27;99404.56;;;17.97;43.90
29383;BME280;16365;51.598;7.668;2023-01-08T12:44:00;99392.16;;;17.98;43.67
29383;BME280;16365;51.598;7.668;2023-01-08T12:46:34;99390.53;;;18.01;43.70
29383;BME280;16365;51.598;7.668;2023-01-08T12:49:02;99380.50;;;18.03;43.74
29383;BME280;16365;51.598;7.668;2023-01-08T12:51:36;99372.06;;;18.07;44.00
29383;BME280;16365;51.598;7.668;2023-01-08T12:54:09;99370.03;;;18.11;43.37
29383;BME280;16365;51.598;7.668;2023-01-08T12:56:50;99375.63;;;18.14;43.29
29383;BME280;16365;51.598;7.668;2023-01-08T13:01:58;99360.38;;;18.19;43.51
29383;BME280;16365;51.598;7.668;2023-01-08T13:04:41;99350.31;;;18.21;43.10
29383;BME280;16365;51.598;7.668;2023-01-08T13:07:10;99345.47;;;18.26;43.11
29383;BME280;16365;51.598;7.668;2023-01-08T13:09:37;99341.44;;;18.27;43.19
29383;BME280;16365;51.598;7.668;2023-01-08T13:12:04;99348.25;;;18.29;43.16
29383;BME280;16365;51.598;7.668;2023-01-08T13:14:38;99344.22;;;18.30;43.07
29383;BME280;16365;51.598;7.668;2023-01-08T13:17:18;99333.81;;;18.31;42.76
29383;BME280;16365;51.598;7.668;2023-01-08T13:19:50;99329.78;;;18.32;42.55
29383;BME280;16365;51.598;7.668;2023-01-08T13:22:24;99331.00;;;18.31;42.73
29383;BME280;16365;51.598;7.668;2023-01-08T13:24:51;99335.03;;;18.30;42.87
29383;BME280;16365;51.598;7.668;2023-01-08T13:32:56;99335.84;;;18.27;42.20
29383;BME280;16365;51.598;7.668;2023-01-08T13:37:48;99340.28;;;18.24;42.56
29383;BME280;16365;51.598;7.668;2023-01-08T13:43:00;99334.31;;;18.18;42.43
29383;BME280;16365;51.598;7.668;2023-01-08T13:45:29;99332.69;;;18.17;42.77
29383;BME280;16365;51.598;7.668;2023-01-08T13:47:56;99336.31;;;18.18;42.48
29383;BME280;16365;51.598;7.668;2023-01-08T13:50:23;99328.31;;;18.16;42.48
29383;BME280;16365;51.598;7.668;2023-01-08T13:52:57;99325.94;;;18.15;42.50
29383;BME280;16365;51.598;7.668;2023-01-08T13:55:34;99332.34;;;18.12;42.11
29383;BME280;16365;51.598;7.668;2023-01-08T13:58:12;99325.97;;;18.08;42.18
29383;BME280;16365;51.598;7.668;2023-01-08T14:05:52;99328.84;;;17.97;42.53
29383;BME280;16365;51.598;7.668;2023-01-08T14:08:35;99323.28;;;17.93;42.78
29383;BME280;16365;51.598;7.668;2023-01-08T14:11:02;99330.09;;;17.92;42.32
29383;BME280;16365;51.598;7.668;2023-01-08T14:13:30;99321.31;;;17.90;42.76
29383;BME280;16365;51.598;7.668;2023-01-08T14:16:01;99325.31;;;17.89;42.82
29383;BME280;16365;51.598;7.668;2023-01-08T14:18:28;99326.13;;;17.86;42.56
29383;BME280;16365;51.598;7.668;2023-01-08T14:20:55;99314.56;;;17.81;42.93